sensor_id;sensor_type;location;lat;lon;timestamp;P1;durP1;ratioP1;P2;durP2;ratioP2
11927;SDS011;6023;47.070;15.126;2023-05-21T00:00:05;16.47;;;13.87;;
11927;SDS011;6023;47.070;15.126;2023-05-21T00:02:37;9.73;;;8.73;;
11927;SDS011;6023;47.070;15.126;2023-05-21T00:05:07;8.73;;;7.83;;
11927;SDS011;6023;47.070;15.126;2023-05-21T00:07:40;19.20;;;16.20;;
11927;SDS011;6023;47.070;15.126;2023-05-21T00:10:09;11.77;;;10.17;;
11927;SDS011;6023;47.070;15.126;2023-05-21T00:12:37;10.70;;;9.60;;
11927;SDS011;6023;47.070;15.126;2023-05-21T00:15:09;9.23;;;8.30;;
11927;SDS011;6023;47.070;15.126;2023-05-21T00:17:38;10.47;;;8.77;;
11927;SDS011;6023;47.070;15.126;2023-05-21T00:20:07;8.27;;;7.43;;
11927;SDS011;6023;47.070;15.126;2023-05-21T00:22:35;8.10;;;7.30;;
11927;SDS011;6023;47.070;15.126;2023-05-21T00:25:04;8.13;;;7.33;;
11927;SDS011;6023;47.070;15.126;2023-05-21T00:27:33;8.23;;;7.10;;
11927;SDS011;6023;47.070;15.126;2023-05-21T00:30:02;9.50;;;7.30;;
11927;SDS011;6023;47.070;15.126;2023-05-21T00:32:32;7.73;;;6.70;;
11927;SDS011;6023;47.070;15.126;2023-05-21T00:35:00;7.90;;;7.10;;
11927;SDS011;6023;47.070;15.126;2023-05-21T00:37:29;10.37;;;6.70;;
11927;SDS011;6023;47.070;15.126;2023-05-21T00:39:59;8.20;;;7.40;;
11927;SDS011;6023;47.070;15.126;2023-05-21T00:42:30;7.67;;;6.87;;
11927;SDS011;6023;47.070;15.126;2023-05-21T00:44:59;7.87;;;7.10;;
11927;SDS011;6023;47.070;15.126;2023-05-21T00:47:29;7.63;;;6.70;;
11927;SDS011;6023;47.070;15.126;2023-05-21T00:50:00;7.87;;;7.07;;
11927;SDS011;6023;47.070;15.126;2023-05-21T00:52:29;12.63;;;11.13;;
11927;SDS011;6023;47.070;15.126;2023-05-21T00:54:58;21.17;;;16.73;;
11927;SDS011;6023;47.070;15.126;2023-05-21T00:57:26;14.87;;;12.10;;
11927;SDS011;6023;47.070;15.126;2023-05-21T00:59:55;8.23;;;7.23;;
11927;SDS011;6023;47.070;15.126;2023-05-21T01:02:23;7.73;;;6.50;;
11927;SDS011;6023;47.070;15.126;2023-05-21T01:04:54;9.30;;;8.30;;
11927;SDS011;6023;47.070;15.126;2023-05-21T01:07:22;7.57;;;6.80;;
11927;SDS011;6023;47.070;15.126;2023-05-21T01:09:51;7.87;;;6.63;;
11927;SDS011;6023;47.070;15.126;2023-05-21T01:12:20;8.27;;;6.80;;
11927;SDS011;6023;47.070;15.126;2023-05-21T01:14:50;8.83;;;7.13;;
11927;SDS011;6023;47.070;15.126;2023-05-21T01:17:19;8.37;;;7.53;;
11927;SDS011;6023;47.070;15.126;2023-05-21T01:19:50;7.97;;;7.17;;
11927;SDS011;6023;47.070;15.126;2023-05-21T01:22:21;8.93;;;7.00;;
11927;SDS011;6023;47.070;15.126;2023-05-21T01:24:52;7.97;;;6.90;;
11927;SDS011;6023;47.070;15.126;2023-05-21T01:27:21;8.00;;;7.10;;
11927;SDS011;6023;47.070;15.126;2023-05-21T01:29:54;7.53;;;6.80;;
11927;SDS011;6023;47.070;15.126;2023-05-21T01:32:39;7.73;;;6.93;;
11927;SDS011;6023;47.070;15.126;2023-05-21T01:35:12;8.00;;;6.77;;
11927;SDS011;6023;47.070;15.126;2023-05-21T01:37:45;8.03;;;7.23;;
11927;SDS011;6023;47.070;15.126;2023-05-21T01:40:21;9.27;;;7.77;;
11927;SDS011;6023;47.070;15.126;2023-05-21T01:42:52;7.80;;;7.10;;
11927;SDS011;6023;47.070;15.126;2023-05-21T01:45:21;7.63;;;6.90;;
11927;SDS011;6023;47.070;15.126;2023-05-21T01:47:51;8.23;;;7.07;;
11927;SDS011;6023;47.070;15.126;2023-05-21T01:50:21;8.70;;;7.80;;
11927;SDS011;6023;47.070;15.126;2023-05-21T01:52:50;11.10;;;9.87;;
11927;SDS011;6023;47.070;15.126;2023-05-21T01:55:21;21.77;;;19.47;;
11927;SDS011;6023;47.070;15.126;2023-05-21T01:57:51;14.47;;;12.37;;
11927;SDS011;6023;47.070;15.126;2023-05-21T02:00:20;10.67;;;9.57;;
11927;SDS011;6023;47.070;15.126;2023-05-21T02:02:49;9.20;;;7.77;;
11927;SDS011;6023;47.070;15.126;2023-05-21T02:05:18;9.77;;;8.20;;
11927;SDS011;6023;47.070;15.126;2023-05-21T02:07:48;8.63;;;7.80;;
11927;SDS011;6023;47.070;15.126;2023-05-21T02:10:16;10.37;;;8.90;;
11927;SDS011;6023;47.070;15.126;2023-05-21T02:12:47;12.10;;;9.10;;
11927;SDS011;6023;47.070;15.126;2023-05-21T02:15:15;8.47;;;7.67;;
11927;SDS011;6023;47.070;15.126;2023-05-21T02:17:45;10.07;;;8.30;;
11927;SDS011;6023;47.070;15.126;2023-05-21T02:20:13;10.17;;;8.90;;
11927;SDS011;6023;47.070;15.126;2023-05-21T02:22:42;9.13;;;8.20;;
11927;SDS011;6023;47.070;15.126;2023-05-21T02:25:12;9.20;;;8.23;;
11927;SDS011;6023;47.070;15.126;2023-05-21T02:27:41;9.20;;;8.03;;
11927;SDS011;6023;47.070;15.126;2023-05-21T02:30:13;11.10;;;8.03;;
11927;SDS011;6023;47.070;15.126;2023-05-21T02:32:42;9.60;;;8.60;;
11927;SDS011;6023;47.070;15.126;2023-05-21T02:35:11;9.53;;;8.53;;
11927;SDS011;6023;47.070;15.126;2023-05-21T02:37:40;9.03;;;8.13;;
11927;SDS011;6023;47.070;15.126;2023-05-21T02:40:10;11.33;;;9.27;;
11927;SDS011;6023;47.070;15.126;2023-05-21T02:42:39;10.23;;;9.23;;
11927;SDS011;6023;47.070;15.126;2023-05-21T02:45:08;12.70;;;10.07;;
11927;SDS011;6023;47.070;15.126;2023-05-21T02:47:39;12.97;;;9.97;;
11927;SDS011;6023;47.070;15.126;2023-05-21T02:50:07;10.13;;;9.13;;
11927;SDS011;6023;47.070;15.126;2023-05-21T02:52:36;10.87;;;9.77;;
11927;SDS011;6023;47.070;15.126;2023-05-21T02:55:05;11.53;;;9.60;;
11927;SDS011;6023;47.070;15.126;2023-05-21T02:57:34;10.50;;;9.23;;
11927;SDS011;6023;47.070;15.126;2023-05-21T03:00:03;10.00;;;8.90;;
11927;SDS011;6023;47.070;15.126;2023-05-21T03:02:35;9.57;;;8.67;;
11927;SDS011;6023;47.070;15.126;2023-05-21T03:05:05;9.30;;;8.40;;
11927;SDS011;6023;47.070;15.126;2023-05-21T03:07:34;9.40;;;8.50;;
11927;SDS011;6023;47.070;15.126;2023-05-21T03:10:03;10.47;;;8.53;;
11927;SDS011;6023;47.070;15.126;2023-05-21T03:12:32;9.97;;;8.63;;
11927;SDS011;6023;47.070;15.126;2023-05-21T03:15:01;9.97;;;8.67;;
11927;SDS011;6023;47.070;15.126;2023-05-21T03:17:29;11.13;;;9.53;;
11927;SDS011;6023;47.070;15.126;2023-05-21T03:19:58;12.17;;;9.23;;
11927;SDS011;6023;47.070;15.126;2023-05-21T03:22:28;9.20;;;8.30;;
11927;SDS011;6023;47.070;15.126;2023-05-21T03:24:57;10.83;;;9.00;;
11927;SDS011;6023;47.070;15.126;2023-05-21T03:27:27;9.20;;;8.30;;
11927;SDS011;6023;47.070;15.126;2023-05-21T03:29:56;10.00;;;9.00;;
11927;SDS011;6023;47.070;15.126;2023-05-21T03:32:25;10.50;;;9.40;;
11927;SDS011;6023;47.070;15.126;2023-05-21T03:34:54;10.53;;;9.43;;
11927;SDS011;6023;47.070;15.126;2023-05-21T03:37:22;12.17;;;9.53;;
11927;SDS011;6023;47.070;15.126;2023-05-21T03:39:52;11.23;;;9.83;;
11927;SDS011;6023;47.070;15.126;2023-05-21T03:42:21;11.07;;;9.53;;
11927;SDS011;6023;47.070;15.126;2023-05-21T03:44:49;11.27;;;9.43;;
11927;SDS011;6023;47.070;15.126;2023-05-21T03:47:18;10.57;;;9.07;;
11927;SDS011;6023;47.070;15.126;2023-05-21T03:49:46;10.40;;;9.10;;
11927;SDS011;6023;47.070;15.126;2023-05-21T03:52:15;9.40;;;8.50;;
11927;SDS011;6023;47.070;15.126;2023-05-21T03:54:43;11.43;;;9.90;;
11927;SDS011;6023;47.070;15.126;2023-05-21T03:57:13;10.03;;;9.03;;
11927;SDS011;6023;47.070;15.126;2023-05-21T03:59:42;9.70;;;8.70;;
11927;SDS011;6023;47.070;15.126;2023-05-21T04:02:10;10.17;;;9.27;;
11927;SDS011;6023;47.070;15.126;2023-05-21T04:04:39;10.93;;;9.83;;
11927;SDS011;6023;47.070;15.126;2023-05-21T04:07:09;9.83;;;8.83;;
11927;SDS011;6023;47.070;15.126;2023-05-21T04:09:40;10.47;;;9.27;;
11927;SDS011;6023;47.070;15.126;2023-05-21T04:12:09;9.83;;;8.90;;
11927;SDS011;6023;47.070;15.126;2023-05-21T04:14:39;10.40;;;8.37;;
11927;SDS011;6023;47.070;15.126;2023-05-21T04:17:08;11.47;;;8.87;;
11927;SDS011;6023;47.070;15.126;2023-05-21T04:19:38;10.70;;;8.70;;
11927;SDS011;6023;47.070;15.126;2023-05-21T04:22:08;10.77;;;9.00;;
11927;SDS011;6023;47.070;15.126;2023-05-21T04:24:37;10.20;;;9.10;;
11927;SDS011;6023;47.070;15.126;2023-05-21T04:27:06;10.10;;;9.10;;
11927;SDS011;6023;47.070;15.126;2023-05-21T04:29:35;9.27;;;8.33;;
11927;SDS011;6023;47.070;15.126;2023-05-21T04:32:09;10.23;;;9.10;;
11927;SDS011;6023;47.070;15.126;2023-05-21T04:34:40;9.30;;;8.40;;
11927;SDS011;6023;47.070;15.126;2023-05-21T04:37:09;11.67;;;9.87;;
11927;SDS011;6023;47.070;15.126;2023-05-21T04:39:37;10.30;;;9.30;;
11927;SDS011;6023;47.070;15.126;2023-05-21T04:42:06;12.17;;;10.27;;
11927;SDS011;6023;47.070;15.126;2023-05-21T04:44:36;11.43;;;10.23;;
11927;SDS011;6023;47.070;15.126;2023-05-21T04:47:05;13.43;;;11.40;;
11927;SDS011;6023;47.070;15.126;2023-05-21T04:49:35;11.43;;;10.37;;
11927;SDS011;6023;47.070;15.126;2023-05-21T04:52:04;11.97;;;10.73;;
11927;SDS011;6023;47.070;15.126;2023-05-21T04:54:33;11.00;;;10.00;;
11927;SDS011;6023;47.070;15.126;2023-05-21T04:57:04;15.27;;;11.80;;
11927;SDS011;6023;47.070;15.126;2023-05-21T04:59:33;12.13;;;10.87;;
11927;SDS011;6023;47.070;15.126;2023-05-21T05:02:02;13.47;;;12.07;;
11927;SDS011;6023;47.070;15.126;2023-05-21T05:04:30;12.03;;;10.83;;
11927;SDS011;6023;47.070;15.126;2023-05-21T05:07:00;13.17;;;11.77;;
11927;SDS011;6023;47.070;15.126;2023-05-21T05:09:29;12.80;;;11.57;;
11927;SDS011;6023;47.070;15.126;2023-05-21T05:11:57;12.20;;;11.10;;
11927;SDS011;6023;47.070;15.126;2023-05-21T05:14:26;12.27;;;11.07;;
11927;SDS011;6023;47.070;15.126;2023-05-21T05:16:55;11.60;;;10.50;;
11927;SDS011;6023;47.070;15.126;2023-05-21T05:19:26;11.50;;;10.30;;
11927;SDS011;6023;47.070;15.126;2023-05-21T05:21:55;12.70;;;11.50;;
11927;SDS011;6023;47.070;15.126;2023-05-21T05:24:25;12.27;;;10.97;;
11927;SDS011;6023;47.070;15.126;2023-05-21T05:26:53;13.03;;;11.57;;
11927;SDS011;6023;47.070;15.126;2023-05-21T05:29:22;12.10;;;10.90;;
11927;SDS011;6023;47.070;15.126;2023-05-21T05:31:50;13.43;;;10.80;;
11927;SDS011;6023;47.070;15.126;2023-05-21T05:34:19;11.80;;;10.63;;
11927;SDS011;6023;47.070;15.126;2023-05-21T05:36:48;11.67;;;10.57;;
11927;SDS011;6023;47.070;15.126;2023-05-21T05:39:16;12.13;;;11.03;;
11927;SDS011;6023;47.070;15.126;2023-05-21T05:41:46;11.17;;;10.17;;
11927;SDS011;6023;47.070;15.126;2023-05-21T05:44:14;12.13;;;10.93;;
11927;SDS011;6023;47.070;15.126;2023-05-21T05:46:43;12.00;;;10.80;;
11927;SDS011;6023;47.070;15.126;2023-05-21T05:49:12;11.83;;;10.67;;
11927;SDS011;6023;47.070;15.126;2023-05-21T05:51:40;13.20;;;11.47;;
11927;SDS011;6023;47.070;15.126;2023-05-21T05:54:09;17.77;;;15.93;;
11927;SDS011;6023;47.070;15.126;2023-05-21T05:56:37;17.97;;;16.03;;
11927;SDS011;6023;47.070;15.126;2023-05-21T05:59:07;17.53;;;15.83;;
11927;SDS011;6023;47.070;15.126;2023-05-21T06:01:36;14.73;;;12.60;;
11927;SDS011;6023;47.070;15.126;2023-05-21T06:04:04;12.70;;;11.40;;
11927;SDS011;6023;47.070;15.126;2023-05-21T06:06:33;12.67;;;11.23;;
11927;SDS011;6023;47.070;15.126;2023-05-21T06:09:02;12.50;;;11.30;;
11927;SDS011;6023;47.070;15.126;2023-05-21T06:11:31;11.53;;;10.40;;
11927;SDS011;6023;47.070;15.126;2023-05-21T06:13:59;11.67;;;10.47;;
11927;SDS011;6023;47.070;15.126;2023-05-21T06:16:29;11.73;;;10.63;;
11927;SDS011;6023;47.070;15.126;2023-05-21T06:18:58;12.33;;;11.03;;
11927;SDS011;6023;47.070;15.126;2023-05-21T06:21:26;11.70;;;10.40;;
11927;SDS011;6023;47.070;15.126;2023-05-21T06:23:55;11.00;;;10.00;;
11927;SDS011;6023;47.070;15.126;2023-05-21T06:26:23;11.80;;;10.60;;
11927;SDS011;6023;47.070;15.126;2023-05-21T06:28:52;10.97;;;9.87;;
11927;SDS011;6023;47.070;15.126;2023-05-21T06:31:20;11.03;;;9.90;;
11927;SDS011;6023;47.070;15.126;2023-05-21T06:33:51;11.53;;;10.33;;
11927;SDS011;6023;47.070;15.126;2023-05-21T06:36:20;11.53;;;10.33;;
11927;SDS011;6023;47.070;15.126;2023-05-21T06:38:48;12.17;;;10.90;;
11927;SDS011;6023;47.070;15.126;2023-05-21T06:41:17;12.73;;;11.53;;
11927;SDS011;6023;47.070;15.126;2023-05-21T06:43:45;12.87;;;11.77;;
11927;SDS011;6023;47.070;15.126;2023-05-21T06:46:14;12.23;;;11.13;;
11927;SDS011;6023;47.070;15.126;2023-05-21T06:48:42;12.93;;;11.73;;
11927;SDS011;6023;47.070;15.126;2023-05-21T06:51:13;13.17;;;11.87;;
11927;SDS011;6023;47.070;15.126;2023-05-21T06:53:41;13.13;;;11.93;;
11927;SDS011;6023;47.070;15.126;2023-05-21T06:56:10;12.53;;;11.27;;
11927;SDS011;6023;47.070;15.126;2023-05-21T06:58:38;12.20;;;11.00;;
11927;SDS011;6023;47.070;15.126;2023-05-21T07:01:07;12.47;;;11.17;;
11927;SDS011;6023;47.070;15.126;2023-05-21T07:03:35;12.13;;;10.97;;
11927;SDS011;6023;47.070;15.126;2023-05-21T07:06:04;10.83;;;9.83;;
11927;SDS011;6023;47.070;15.126;2023-05-21T07:08:34;10.77;;;9.77;;
11927;SDS011;6023;47.070;15.126;2023-05-21T07:11:03;10.67;;;9.67;;
11927;SDS011;6023;47.070;15.126;2023-05-21T07:13:31;10.97;;;9.97;;
11927;SDS011;6023;47.070;15.126;2023-05-21T07:16:01;11.77;;;10.70;;
11927;SDS011;6023;47.070;15.126;2023-05-21T07:18:30;11.60;;;10.50;;
11927;SDS011;6023;47.070;15.126;2023-05-21T07:20:58;11.40;;;10.30;;
11927;SDS011;6023;47.070;15.126;2023-05-21T07:23:27;11.90;;;10.80;;
11927;SDS011;6023;47.070;15.126;2023-05-21T07:25:56;11.00;;;9.90;;
11927;SDS011;6023;47.070;15.126;2023-05-21T07:28:25;11.97;;;10.77;;
11927;SDS011;6023;47.070;15.126;2023-05-21T07:30:53;10.97;;;9.93;;
11927;SDS011;6023;47.070;15.126;2023-05-21T07:33:22;10.83;;;9.73;;
11927;SDS011;6023;47.070;15.126;2023-05-21T07:35:50;10.53;;;9.47;;
11927;SDS011;6023;47.070;15.126;2023-05-21T07:38:19;10.27;;;9.33;;
11927;SDS011;6023;47.070;15.126;2023-05-21T07:40:47;10.93;;;9.83;;
11927;SDS011;6023;47.070;15.126;2023-05-21T07:43:17;9.90;;;8.77;;
11927;SDS011;6023;47.070;15.126;2023-05-21T07:45:46;10.33;;;9.23;;
11927;SDS011;6023;47.070;15.126;2023-05-21T07:48:14;9.90;;;8.93;;
11927;SDS011;6023;47.070;15.126;2023-05-21T07:50:43;10.37;;;9.07;;
11927;SDS011;6023;47.070;15.126;2023-05-21T07:53:15;10.30;;;9.20;;
11927;SDS011;6023;47.070;15.126;2023-05-21T07:55:43;9.57;;;8.67;;
11927;SDS011;6023;47.070;15.126;2023-05-21T07:58:14;9.67;;;8.77;;
11927;SDS011;6023;47.070;15.126;2023-05-21T08:00:45;10.97;;;9.87;;
11927;SDS011;6023;47.070;15.126;2023-05-21T08:03:14;10.63;;;9.63;;
11927;SDS011;6023;47.070;15.126;2023-05-21T08:05:44;10.33;;;9.33;;
11927;SDS011;6023;47.070;15.126;2023-05-21T08:08:14;9.57;;;8.67;;
11927;SDS011;6023;47.070;15.126;2023-05-21T08:10:44;9.90;;;9.00;;
11927;SDS011;6023;47.070;15.126;2023-05-21T08:13:13;12.27;;;9.63;;
11927;SDS011;6023;47.070;15.126;2023-05-21T08:15:42;10.70;;;9.70;;
11927;SDS011;6023;47.070;15.126;2023-05-21T08:18:12;11.03;;;9.93;;
11927;SDS011;6023;47.070;15.126;2023-05-21T08:20:43;10.80;;;9.70;;
11927;SDS011;6023;47.070;15.126;2023-05-21T08:23:11;11.53;;;10.40;;
11927;SDS011;6023;47.070;15.126;2023-05-21T08:25:40;12.13;;;11.02;;
11927;SDS011;6023;47.070;15.126;2023-05-21T08:28:08;11.43;;;10.30;;
11927;SDS011;6023;47.070;15.126;2023-05-21T08:30:37;11.10;;;9.93;;
11927;SDS011;6023;47.070;15.126;2023-05-21T08:33:07;11.50;;;9.82;;
11927;SDS011;6023;47.070;15.126;2023-05-21T08:35:35;13.67;;;12.37;;
11927;SDS011;6023;47.070;15.126;2023-05-21T08:38:04;12.73;;;10.97;;
11927;SDS011;6023;47.070;15.126;2023-05-21T08:40:33;15.43;;;14.00;;
11927;SDS011;6023;47.070;15.126;2023-05-21T08:43:01;12.70;;;11.53;;
11927;SDS011;6023;47.070;15.126;2023-05-21T08:45:31;11.73;;;10.57;;
11927;SDS011;6023;47.070;15.126;2023-05-21T08:48:04;10.67;;;9.67;;
11927;SDS011;6023;47.070;15.126;2023-05-21T08:50:35;10.25;;;9.25;;
11927;SDS011;6023;47.070;15.126;2023-05-21T08:53:04;11.25;;;10.15;;
11927;SDS011;6023;47.070;15.126;2023-05-21T08:55:50;11.47;;;9.50;;
11927;SDS011;6023;47.070;15.126;2023-05-21T08:58:19;13.57;;;12.23;;
11927;SDS011;6023;47.070;15.126;2023-05-21T09:00:48;14.23;;;12.73;;
11927;SDS011;6023;47.070;15.126;2023-05-21T09:03:18;23.07;;;20.97;;
11927;SDS011;6023;47.070;15.126;2023-05-21T09:05:48;106.60;;;95.97;;
11927;SDS011;6023;47.070;15.126;2023-05-21T09:08:17;240.13;;;216.37;;
11927;SDS011;6023;47.070;15.126;2023-05-21T09:10:47;406.57;;;371.33;;
11927;SDS011;6023;47.070;15.126;2023-05-21T09:13:17;115.00;;;104.60;;
11927;SDS011;6023;47.070;15.126;2023-05-21T09:15:46;24.77;;;22.40;;
11927;SDS011;6023;47.070;15.126;2023-05-21T09:18:15;68.63;;;62.47;;
11927;SDS011;6023;47.070;15.126;2023-05-21T09:20:45;265.60;;;243.07;;
11927;SDS011;6023;47.070;15.126;2023-05-21T09:23:15;72.53;;;65.83;;
11927;SDS011;6023;47.070;15.126;2023-05-21T09:25:44;18.57;;;16.87;;
11927;SDS011;6023;47.070;15.126;2023-05-21T09:28:14;10.57;;;9.57;;
11927;SDS011;6023;47.070;15.126;2023-05-21T09:30:44;12.20;;;11.00;;
11927;SDS011;6023;47.070;15.126;2023-05-21T09:33:22;8.83;;;7.90;;
11927;SDS011;6023;47.070;15.126;2023-05-21T09:35:53;11.47;;;9.60;;
11927;SDS011;6023;47.070;15.126;2023-05-21T09:38:21;10.90;;;9.80;;
11927;SDS011;6023;47.070;15.126;2023-05-21T09:40:50;18.80;;;16.90;;
11927;SDS011;6023;47.070;15.126;2023-05-21T09:43:21;26.47;;;23.60;;
11927;SDS011;6023;47.070;15.126;2023-05-21T09:45:50;9.90;;;8.90;;
11927;SDS011;6023;47.070;15.126;2023-05-21T09:51:13;10.20;;;9.03;;
11927;SDS011;6023;47.070;15.126;2023-05-21T09:53:43;12.13;;;10.93;;
11927;SDS011;6023;47.070;15.126;2023-05-21T09:56:12;10.65;;;9.57;;
11927;SDS011;6023;47.070;15.126;2023-05-21T09:58:41;9.20;;;8.30;;
11927;SDS011;6023;47.070;15.126;2023-05-21T10:01:10;9.70;;;8.80;;
11927;SDS011;6023;47.070;15.126;2023-05-21T10:03:38;8.88;;;7.97;;
11927;SDS011;6023;47.070;15.126;2023-05-21T10:06:09;8.10;;;7.40;;
11927;SDS011;6023;47.070;15.126;2023-05-21T10:08:41;9.27;;;8.38;;
11927;SDS011;6023;47.070;15.126;2023-05-21T10:11:13;9.07;;;8.17;;
11927;SDS011;6023;47.070;15.126;2023-05-21T10:13:43;11.35;;;10.27;;
11927;SDS011;6023;47.070;15.126;2023-05-21T10:16:16;9.63;;;8.30;;
11927;SDS011;6023;47.070;15.126;2023-05-21T10:18:46;8.80;;;7.90;;
11927;SDS011;6023;47.070;15.126;2023-05-21T10:21:16;9.17;;;8.27;;
11927;SDS011;6023;47.070;15.126;2023-05-21T10:23:47;9.40;;;8.50;;
11927;SDS011;6023;47.070;15.126;2023-05-21T10:26:17;8.83;;;7.93;;
11927;SDS011;6023;47.070;15.126;2023-05-21T10:28:47;8.67;;;7.77;;
11927;SDS011;6023;47.070;15.126;2023-05-21T10:31:17;8.50;;;7.60;;
11927;SDS011;6023;47.070;15.126;2023-05-21T10:33:47;8.73;;;7.93;;
11927;SDS011;6023;47.070;15.126;2023-05-21T10:36:16;8.07;;;7.37;;
11927;SDS011;6023;47.070;15.126;2023-05-21T10:38:46;9.30;;;7.67;;
11927;SDS011;6023;47.070;15.126;2023-05-21T10:41:16;8.87;;;7.97;;
11927;SDS011;6023;47.070;15.126;2023-05-21T10:43:47;8.93;;;8.03;;
11927;SDS011;6023;47.070;15.126;2023-05-21T10:46:26;8.60;;;7.80;;
11927;SDS011;6023;47.070;15.126;2023-05-21T10:52:03;8.30;;;7.50;;
11927;SDS011;6023;47.070;15.126;2023-05-21T10:57:52;12.23;;;10.97;;
11927;SDS011;6023;47.070;15.126;2023-05-21T11:00:54;8.37;;;7.57;;
11927;SDS011;6023;47.070;15.126;2023-05-21T11:03:23;8.30;;;7.40;;
11927;SDS011;6023;47.070;15.126;2023-05-21T11:05:53;8.52;;;7.72;;
11927;SDS011;6023;47.070;15.126;2023-05-21T11:08:23;9.27;;;7.85;;
11927;SDS011;6023;47.070;15.126;2023-05-21T11:10:58;8.23;;;7.45;;
11927;SDS011;6023;47.070;15.126;2023-05-21T11:13:27;8.70;;;7.70;;
11927;SDS011;6023;47.070;15.126;2023-05-21T11:16:05;9.10;;;7.50;;
11927;SDS011;6023;47.070;15.126;2023-05-21T11:21:30;9.88;;;8.20;;
11927;SDS011;6023;47.070;15.126;2023-05-21T11:24:03;8.20;;;7.20;;
11927;SDS011;6023;47.070;15.126;2023-05-21T11:29:42;9.10;;;7.70;;
11927;SDS011;6023;47.070;15.126;2023-05-21T11:32:18;8.30;;;7.43;;
11927;SDS011;6023;47.070;15.126;2023-05-21T11:34:47;8.20;;;7.40;;
11927;SDS011;6023;47.070;15.126;2023-05-21T11:37:23;8.40;;;7.55;;
11927;SDS011;6023;47.070;15.126;2023-05-21T11:39:55;8.05;;;7.28;;
11927;SDS011;6023;47.070;15.126;2023-05-21T11:42:33;8.13;;;7.32;;
11927;SDS011;6023;47.070;15.126;2023-05-21T11:45:02;8.82;;;7.93;;
11927;SDS011;6023;47.070;15.126;2023-05-21T11:47:31;7.63;;;6.82;;
11927;SDS011;6023;47.070;15.126;2023-05-21T11:50:00;8.23;;;7.38;;
11927;SDS011;6023;47.070;15.126;2023-05-21T11:52:33;8.00;;;7.20;;
11927;SDS011;6023;47.070;15.126;2023-05-21T11:55:46;7.75;;;6.75;;
11927;SDS011;6023;47.070;15.126;2023-05-21T11:58:40;9.32;;;8.25;;
11927;SDS011;6023;47.070;15.126;2023-05-21T12:01:22;8.18;;;7.40;;
11927;SDS011;6023;47.070;15.126;2023-05-21T12:03:55;7.90;;;6.55;;
11927;SDS011;6023;47.070;15.126;2023-05-21T12:06:25;7.82;;;7.03;;
11927;SDS011;6023;47.070;15.126;2023-05-21T12:08:53;7.43;;;6.68;;
11927;SDS011;6023;47.070;15.126;2023-05-21T12:11:24;8.95;;;6.72;;
11927;SDS011;6023;47.070;15.126;2023-05-21T12:13:54;8.57;;;7.10;;
11927;SDS011;6023;47.070;15.126;2023-05-21T12:16:23;9.20;;;7.10;;
11927;SDS011;6023;47.070;15.126;2023-05-21T12:18:52;7.40;;;6.65;;
11927;SDS011;6023;47.070;15.126;2023-05-21T12:21:21;7.50;;;6.03;;
11927;SDS011;6023;47.070;15.126;2023-05-21T12:23:50;7.20;;;6.50;;
11927;SDS011;6023;47.070;15.126;2023-05-21T12:26:18;8.60;;;6.40;;
11927;SDS011;6023;47.070;15.126;2023-05-21T12:28:47;6.90;;;6.20;;
11927;SDS011;6023;47.070;15.126;2023-05-21T12:31:17;7.18;;;6.55;;
11927;SDS011;6023;47.070;15.126;2023-05-21T12:33:47;7.28;;;6.57;;
11927;SDS011;6023;47.070;15.126;2023-05-21T12:36:24;8.38;;;6.68;;
11927;SDS011;6023;47.070;15.126;2023-05-21T12:38:53;9.27;;;6.78;;
11927;SDS011;6023;47.070;15.126;2023-05-21T12:41:23;8.27;;;7.47;;
11927;SDS011;6023;47.070;15.126;2023-05-21T12:43:52;6.95;;;6.35;;
11927;SDS011;6023;47.070;15.126;2023-05-21T12:46:22;8.23;;;6.80;;
11927;SDS011;6023;47.070;15.126;2023-05-21T12:48:51;8.02;;;6.95;;
11927;SDS011;6023;47.070;15.126;2023-05-21T12:51:21;11.30;;;7.97;;
11927;SDS011;6023;47.070;15.126;2023-05-21T12:53:50;7.18;;;6.47;;
11927;SDS011;6023;47.070;15.126;2023-05-21T12:56:18;6.72;;;6.00;;
11927;SDS011;6023;47.070;15.126;2023-05-21T12:58:48;11.20;;;9.40;;
11927;SDS011;6023;47.070;15.126;2023-05-21T13:01:20;6.95;;;6.25;;
11927;SDS011;6023;47.070;15.126;2023-05-21T13:03:50;7.00;;;6.30;;
11927;SDS011;6023;47.070;15.126;2023-05-21T13:06:19;7.57;;;6.65;;
11927;SDS011;6023;47.070;15.126;2023-05-21T13:08:47;7.10;;;6.40;;
11927;SDS011;6023;47.070;15.126;2023-05-21T13:11:16;6.85;;;6.15;;
11927;SDS011;6023;47.070;15.126;2023-05-21T13:13:44;6.95;;;6.30;;
11927;SDS011;6023;47.070;15.126;2023-05-21T13:16:13;7.13;;;6.43;;
11927;SDS011;6023;47.070;15.126;2023-05-21T13:18:43;8.18;;;6.68;;
11927;SDS011;6023;47.070;15.126;2023-05-21T13:21:12;6.70;;;5.82;;
11927;SDS011;6023;47.070;15.126;2023-05-21T13:23:40;6.63;;;6.00;;
11927;SDS011;6023;47.070;15.126;2023-05-21T13:26:09;7.45;;;6.60;;
11927;SDS011;6023;47.070;15.126;2023-05-21T13:28:37;6.85;;;6.10;;
11927;SDS011;6023;47.070;15.126;2023-05-21T13:31:08;7.07;;;6.18;;
11927;SDS011;6023;47.070;15.126;2023-05-21T13:33:37;8.13;;;6.80;;
11927;SDS011;6023;47.070;15.126;2023-05-21T13:36:07;9.63;;;7.93;;
11927;SDS011;6023;47.070;15.126;2023-05-21T13:38:36;7.13;;;6.43;;
11927;SDS011;6023;47.070;15.126;2023-05-21T13:41:05;7.32;;;6.38;;
11927;SDS011;6023;47.070;15.126;2023-05-21T13:43:33;7.32;;;6.57;;
11927;SDS011;6023;47.070;15.126;2023-05-21T13:46:02;7.78;;;6.53;;
11927;SDS011;6023;47.070;15.126;2023-05-21T13:48:31;7.63;;;6.82;;
11927;SDS011;6023;47.070;15.126;2023-05-21T13:50:59;6.95;;;6.25;;
11927;SDS011;6023;47.070;15.126;2023-05-21T13:53:29;7.22;;;6.50;;
11927;SDS011;6023;47.070;15.126;2023-05-21T13:55:58;7.20;;;6.50;;
11927;SDS011;6023;47.070;15.126;2023-05-21T13:58:26;6.55;;;5.95;;
11927;SDS011;6023;47.070;15.126;2023-05-21T14:01:00;7.28;;;6.55;;
11927;SDS011;6023;47.070;15.126;2023-05-21T14:03:28;7.35;;;6.65;;
11927;SDS011;6023;47.070;15.126;2023-05-21T14:05:57;7.45;;;6.00;;
11927;SDS011;6023;47.070;15.126;2023-05-21T14:08:25;7.50;;;6.50;;
11927;SDS011;6023;47.070;15.126;2023-05-21T14:10:56;8.60;;;6.50;;
11927;SDS011;6023;47.070;15.126;2023-05-21T14:13:25;7.25;;;6.35;;
11927;SDS011;6023;47.070;15.126;2023-05-21T14:15:53;6.80;;;6.15;;
11927;SDS011;6023;47.070;15.126;2023-05-21T14:18:22;6.82;;;5.95;;
11927;SDS011;6023;47.070;15.126;2023-05-21T14:20:51;6.88;;;6.18;;
11927;SDS011;6023;47.070;15.126;2023-05-21T14:23:20;8.07;;;7.28;;
11927;SDS011;6023;47.070;15.126;2023-05-21T14:25:48;29.63;;;26.92;;
11927;SDS011;6023;47.070;15.126;2023-05-21T14:28:18;7.20;;;6.50;;
11927;SDS011;6023;47.070;15.126;2023-05-21T14:30:47;6.70;;;5.97;;
11927;SDS011;6023;47.070;15.126;2023-05-21T14:33:16;6.45;;;5.85;;
11927;SDS011;6023;47.070;15.126;2023-05-21T14:35:44;6.88;;;6.18;;
11927;SDS011;6023;47.070;15.126;2023-05-21T14:38:13;9.90;;;8.82;;
11927;SDS011;6023;47.070;15.126;2023-05-21T14:40:42;7.95;;;6.55;;
11927;SDS011;6023;47.070;15.126;2023-05-21T14:43:10;7.00;;;6.30;;
11927;SDS011;6023;47.070;15.126;2023-05-21T14:45:40;6.95;;;6.25;;
11927;SDS011;6023;47.070;15.126;2023-05-21T14:48:09;7.38;;;6.43;;
11927;SDS011;6023;47.070;15.126;2023-05-21T14:50:38;6.30;;;5.70;;
11927;SDS011;6023;47.070;15.126;2023-05-21T14:53:07;7.13;;;6.43;;
11927;SDS011;6023;47.070;15.126;2023-05-21T14:55:36;6.70;;;6.00;;
11927;SDS011;6023;47.070;15.126;2023-05-21T14:58:05;6.88;;;6.22;;
11927;SDS011;6023;47.070;15.126;2023-05-21T15:00:34;7.43;;;6.35;;
11927;SDS011;6023;47.070;15.126;2023-05-21T15:03:04;8.00;;;6.90;;
11927;SDS011;6023;47.070;15.126;2023-05-21T15:05:33;7.68;;;6.50;;
11927;SDS011;6023;47.070;15.126;2023-05-21T15:08:02;7.10;;;6.22;;